sensor_id;sensor_type;location;lat;lon;timestamp;P1;durP1;ratioP1;P2;durP2;ratioP2
18290;SDS011;9271;48.590;8.866;2022-11-20T00:00:05;4.53;;;3.70;;
18290;SDS011;9271;48.590;8.866;2022-11-20T00:02:33;4.20;;;3.80;;
18290;SDS011;9271;48.590;8.866;2022-11-20T00:05:01;4.20;;;3.80;;
18290;SDS011;9271;48.590;8.866;2022-11-20T00:07:27;5.27;;;4.77;;
18290;SDS011;9271;48.590;8.866;2022-11-20T00:09:54;4.53;;;4.13;;
18290;SDS011;9271;48.590;8.866;2022-11-20T00:12:22;4.30;;;3.90;;
18290;SDS011;9271;48.590;8.866;2022-11-20T00:14:49;5.83;;;3.90;;
18290;SDS011;9271;48.590;8.866;2022-11-20T00:17:15;3.67;;;3.37;;
18290;SDS011;9271;48.590;8.866;2022-11-20T00:19:42;4.47;;;3.90;;
18290;SDS011;9271;48.590;8.866;2022-11-20T00:22:09;4.27;;;3.53;;
18290;SDS011;9271;48.590;8.866;2022-11-20T00:24:36;4.00;;;3.60;;
18290;SDS011;9271;48.590;8.866;2022-11-20T00:27:02;4.37;;;3.97;;
18290;SDS011;9271;48.590;8.866;2022-11-20T00:29:30;4.70;;;3.57;;
18290;SDS011;9271;48.590;8.866;2022-11-20T00:31:57;4.67;;;4.17;;
18290;SDS011;9271;48.590;8.866;2022-11-20T00:34:24;4.93;;;4.47;;
18290;SDS011;9271;48.590;8.866;2022-11-20T00:36:50;6.30;;;4.67;;
18290;SDS011;9271;48.590;8.866;2022-11-20T00:39:17;6.47;;;5.03;;
18290;SDS011;9271;48.590;8.866;2022-11-20T00:41:44;7.03;;;5.57;;
18290;SDS011;9271;48.590;8.866;2022-11-20T00:44:10;6.00;;;5.40;;
18290;SDS011;9271;48.590;8.866;2022-11-20T00:46:39;7.03;;;5.63;;
18290;SDS011;9271;48.590;8.866;2022-11-20T00:49:05;6.73;;;5.80;;
18290;SDS011;9271;48.590;8.866;2022-11-20T00:51:32;5.97;;;5.40;;
18290;SDS011;9271;48.590;8.866;2022-11-20T00:53:59;5.17;;;4.70;;
18290;SDS011;9271;48.590;8.866;2022-11-20T00:56:27;5.00;;;4.50;;
18290;SDS011;9271;48.590;8.866;2022-11-20T00:58:54;5.70;;;4.87;;
18290;SDS011;9271;48.590;8.866;2022-11-20T01:01:21;7.43;;;4.60;;
18290;SDS011;9271;48.590;8.866;2022-11-20T01:03:52;5.50;;;4.60;;
18290;SDS011;9271;48.590;8.866;2022-11-20T01:06:21;7.90;;;5.57;;
18290;SDS011;9271;48.590;8.866;2022-11-20T01:08:50;8.83;;;5.43;;
18290;SDS011;9271;48.590;8.866;2022-11-20T01:11:19;8.70;;;5.80;;
18290;SDS011;9271;48.590;8.866;2022-11-20T01:13:48;5.70;;;5.10;;
18290;SDS011;9271;48.590;8.866;2022-11-20T01:16:17;6.87;;;5.40;;
18290;SDS011;9271;48.590;8.866;2022-11-20T01:18:46;7.93;;;5.70;;
18290;SDS011;9271;48.590;8.866;2022-11-20T01:21:15;10.27;;;6.07;;
18290;SDS011;9271;48.590;8.866;2022-11-20T01:23:43;10.70;;;6.77;;
18290;SDS011;9271;48.590;8.866;2022-11-20T01:26:12;6.40;;;5.50;;
18290;SDS011;9271;48.590;8.866;2022-11-20T01:28:40;9.37;;;5.43;;
18290;SDS011;9271;48.590;8.866;2022-11-20T01:31:11;6.73;;;6.03;;
18290;SDS011;9271;48.590;8.866;2022-11-20T01:33:39;7.20;;;5.77;;
18290;SDS011;9271;48.590;8.866;2022-11-20T01:36:06;9.70;;;6.10;;
18290;SDS011;9271;48.590;8.866;2022-11-20T01:38:35;9.13;;;6.70;;
18290;SDS011;9271;48.590;8.866;2022-11-20T01:41:02;8.80;;;6.33;;
18290;SDS011;9271;48.590;8.866;2022-11-20T01:46:05;13.03;;;7.27;;
18290;SDS011;9271;48.590;8.866;2022-11-20T01:48:42;8.33;;;7.27;;
18290;SDS011;9271;48.590;8.866;2022-11-20T01:51:18;9.23;;;7.23;;
18290;SDS011;9271;48.590;8.866;2022-11-20T01:53:51;9.53;;;6.53;;
18290;SDS011;9271;48.590;8.866;2022-11-20T01:56:20;8.90;;;6.83;;
18290;SDS011;9271;48.590;8.866;2022-11-20T01:58:49;8.63;;;7.03;;
18290;SDS011;9271;48.590;8.866;2022-11-20T02:01:19;8.00;;;6.83;;
18290;SDS011;9271;48.590;8.866;2022-11-20T02:03:47;7.47;;;6.47;;
18290;SDS011;9271;48.590;8.866;2022-11-20T02:06:16;8.23;;;6.40;;
18290;SDS011;9271;48.590;8.866;2022-11-20T02:08:47;7.87;;;6.43;;
18290;SDS011;9271;48.590;8.866;2022-11-20T02:11:15;7.40;;;6.67;;
18290;SDS011;9271;48.590;8.866;2022-11-20T02:13:42;8.73;;;7.83;;
18290;SDS011;9271;48.590;8.866;2022-11-20T02:16:08;10.07;;;8.73;;
18290;SDS011;9271;48.590;8.866;2022-11-20T02:18:38;7.70;;;6.90;;
18290;SDS011;9271;48.590;8.866;2022-11-20T02:21:06;8.37;;;6.83;;
18290;SDS011;9271;48.590;8.866;2022-11-20T02:23:55;11.57;;;6.67;;
18290;SDS011;9271;48.590;8.866;2022-11-20T02:26:45;8.03;;;6.73;;
18290;SDS011;9271;48.590;8.866;2022-11-20T02:29:16;10.07;;;7.07;;
18290;SDS011;9271;48.590;8.866;2022-11-20T02:31:46;7.60;;;6.90;;
18290;SDS011;9271;48.590;8.866;2022-11-20T02:34:13;8.77;;;6.50;;
18290;SDS011;9271;48.590;8.866;2022-11-20T02:36:40;7.67;;;6.63;;
18290;SDS011;9271;48.590;8.866;2022-11-20T02:39:10;8.10;;;6.40;;
18290;SDS011;9271;48.590;8.866;2022-11-20T02:41:41;9.90;;;7.23;;
18290;SDS011;9271;48.590;8.866;2022-11-20T02:44:08;8.80;;;6.47;;
18290;SDS011;9271;48.590;8.866;2022-11-20T02:46:35;9.63;;;7.30;;
18290;SDS011;9271;48.590;8.866;2022-11-20T02:49:02;10.57;;;8.10;;
18290;SDS011;9271;48.590;8.866;2022-11-20T02:51:29;9.93;;;8.13;;
18290;SDS011;9271;48.590;8.866;2022-11-20T02:53:56;10.53;;;8.00;;
18290;SDS011;9271;48.590;8.866;2022-11-20T02:56:24;12.87;;;8.57;;
18290;SDS011;9271;48.590;8.866;2022-11-20T02:58:51;10.87;;;8.97;;
18290;SDS011;9271;48.590;8.866;2022-11-20T03:01:18;10.67;;;8.87;;
18290;SDS011;9271;48.590;8.866;2022-11-20T03:03:45;16.33;;;9.03;;
18290;SDS011;9271;48.590;8.866;2022-11-20T03:06:13;12.17;;;9.07;;
18290;SDS011;9271;48.590;8.866;2022-11-20T03:08:40;11.33;;;9.67;;
18290;SDS011;9271;48.590;8.866;2022-11-20T03:11:07;11.93;;;9.30;;
18290;SDS011;9271;48.590;8.866;2022-11-20T03:13:35;12.70;;;9.93;;
18290;SDS011;9271;48.590;8.866;2022-11-20T03:16:06;12.07;;;8.57;;
18290;SDS011;9271;48.590;8.866;2022-11-20T03:18:34;13.73;;;8.77;;
18290;SDS011;9271;48.590;8.866;2022-11-20T03:21:00;9.40;;;8.00;;
18290;SDS011;9271;48.590;8.866;2022-11-20T03:23:28;7.97;;;7.13;;
18290;SDS011;9271;48.590;8.866;2022-11-20T03:26:06;8.60;;;7.47;;
18290;SDS011;9271;48.590;8.866;2022-11-20T03:28:38;11.03;;;7.47;;
18290;SDS011;9271;48.590;8.866;2022-11-20T03:31:09;11.27;;;8.63;;
18290;SDS011;9271;48.590;8.866;2022-11-20T03:33:37;9.17;;;8.10;;
18290;SDS011;9271;48.590;8.866;2022-11-20T03:36:05;10.77;;;8.10;;
18290;SDS011;9271;48.590;8.866;2022-11-20T03:38:33;10.33;;;8.37;;
18290;SDS011;9271;48.590;8.866;2022-11-20T03:41:01;10.20;;;8.17;;
18290;SDS011;9271;48.590;8.866;2022-11-20T03:43:28;9.33;;;7.97;;
18290;SDS011;9271;48.590;8.866;2022-11-20T03:45:57;8.33;;;7.40;;
18290;SDS011;9271;48.590;8.866;2022-11-20T03:48:24;9.77;;;7.07;;
18290;SDS011;9271;48.590;8.866;2022-11-20T03:50:51;7.70;;;6.40;;
18290;SDS011;9271;48.590;8.866;2022-11-20T03:53:18;7.87;;;6.63;;
18290;SDS011;9271;48.590;8.866;2022-11-20T03:55:45;7.30;;;6.37;;
18290;SDS011;9271;48.590;8.866;2022-11-20T03:58:16;9.13;;;6.80;;
18290;SDS011;9271;48.590;8.866;2022-11-20T04:00:43;7.30;;;6.60;;
18290;SDS011;9271;48.590;8.866;2022-11-20T04:03:11;8.57;;;7.27;;
18290;SDS011;9271;48.590;8.866;2022-11-20T04:05:37;7.53;;;6.63;;
18290;SDS011;9271;48.590;8.866;2022-11-20T04:08:04;8.40;;;6.57;;
18290;SDS011;9271;48.590;8.866;2022-11-20T04:12:58;7.40;;;6.60;;
18290;SDS011;9271;48.590;8.866;2022-11-20T04:15:24;7.27;;;6.47;;
18290;SDS011;9271;48.590;8.866;2022-11-20T04:17:51;6.83;;;6.20;;
18290;SDS011;9271;48.590;8.866;2022-11-20T04:20:19;6.73;;;6.10;;
18290;SDS011;9271;48.590;8.866;2022-11-20T04:22:46;7.73;;;6.70;;
18290;SDS011;9271;48.590;8.866;2022-11-20T04:25:12;7.03;;;6.37;;
18290;SDS011;9271;48.590;8.866;2022-11-20T04:27:39;7.87;;;6.63;;
18290;SDS011;9271;48.590;8.866;2022-11-20T04:30:06;6.60;;;6.00;;
18290;SDS011;9271;48.590;8.866;2022-11-20T04:32:34;7.23;;;6.53;;
18290;SDS011;9271;48.590;8.866;2022-11-20T04:35:00;7.17;;;6.50;;
18290;SDS011;9271;48.590;8.866;2022-11-20T04:37:28;7.13;;;6.10;;
18290;SDS011;9271;48.590;8.866;2022-11-20T04:39:55;7.43;;;6.70;;
18290;SDS011;9271;48.590;8.866;2022-11-20T04:42:22;7.63;;;6.77;;
18290;SDS011;9271;48.590;8.866;2022-11-20T04:44:54;6.53;;;5.93;;
18290;SDS011;9271;48.590;8.866;2022-11-20T04:47:22;6.73;;;6.10;;
18290;SDS011;9271;48.590;8.866;2022-11-20T04:49:49;6.67;;;5.97;;
18290;SDS011;9271;48.590;8.866;2022-11-20T04:52:15;6.73;;;6.13;;
18290;SDS011;9271;48.590;8.866;2022-11-20T04:54:43;6.73;;;6.10;;
18290;SDS011;9271;48.590;8.866;2022-11-20T04:57:12;6.93;;;5.87;;
18290;SDS011;9271;48.590;8.866;2022-11-20T04:59:39;6.03;;;5.40;;
18290;SDS011;9271;48.590;8.866;2022-11-20T05:02:06;6.10;;;5.60;;
18290;SDS011;9271;48.590;8.866;2022-11-20T05:04:33;5.97;;;5.47;;
18290;SDS011;9271;48.590;8.866;2022-11-20T05:06:59;5.83;;;5.33;;
18290;SDS011;9271;48.590;8.866;2022-11-20T05:09:26;6.33;;;5.73;;
18290;SDS011;9271;48.590;8.866;2022-11-20T05:11:54;5.90;;;5.40;;
18290;SDS011;9271;48.590;8.866;2022-11-20T05:14:21;6.47;;;5.87;;
18290;SDS011;9271;48.590;8.866;2022-11-20T05:16:47;5.40;;;4.90;;
18290;SDS011;9271;48.590;8.866;2022-11-20T05:19:14;5.10;;;4.60;;
18290;SDS011;9271;48.590;8.866;2022-11-20T05:21:41;5.23;;;4.83;;
18290;SDS011;9271;48.590;8.866;2022-11-20T05:24:07;5.63;;;4.90;;
18290;SDS011;9271;48.590;8.866;2022-11-20T05:26:34;4.73;;;4.33;;
18290;SDS011;9271;48.590;8.866;2022-11-20T05:29:02;5.30;;;4.80;;
18290;SDS011;9271;48.590;8.866;2022-11-20T05:31:29;5.37;;;4.77;;
18290;SDS011;9271;48.590;8.866;2022-11-20T05:33:56;5.40;;;4.90;;
18290;SDS011;9271;48.590;8.866;2022-11-20T05:36:23;5.70;;;5.10;;
18290;SDS011;9271;48.590;8.866;2022-11-20T05:38:50;5.83;;;4.90;;
18290;SDS011;9271;48.590;8.866;2022-11-20T05:41:18;5.20;;;4.70;;
18290;SDS011;9271;48.590;8.866;2022-11-20T05:43:46;5.30;;;4.40;;
18290;SDS011;9271;48.590;8.866;2022-11-20T05:46:16;4.83;;;4.43;;
18290;SDS011;9271;48.590;8.866;2022-11-20T05:48:44;5.70;;;5.10;;
18290;SDS011;9271;48.590;8.866;2022-11-20T05:51:13;5.57;;;5.13;;
18290;SDS011;9271;48.590;8.866;2022-11-20T05:53:41;6.53;;;4.87;;
18290;SDS011;9271;48.590;8.866;2022-11-20T05:56:09;4.90;;;4.50;;
18290;SDS011;9271;48.590;8.866;2022-11-20T05:58:37;5.90;;;4.73;;
18290;SDS011;9271;48.590;8.866;2022-11-20T06:01:05;5.20;;;4.70;;
18290;SDS011;9271;48.590;8.866;2022-11-20T06:03:34;5.20;;;4.70;;
18290;SDS011;9271;48.590;8.866;2022-11-20T06:06:02;6.17;;;4.87;;
18290;SDS011;9271;48.590;8.866;2022-11-20T06:08:30;5.40;;;4.90;;
18290;SDS011;9271;48.590;8.866;2022-11-20T06:10:57;5.33;;;4.87;;
18290;SDS011;9271;48.590;8.866;2022-11-20T06:13:24;5.33;;;4.50;;
18290;SDS011;9271;48.590;8.866;2022-11-20T06:15:51;5.00;;;4.50;;
18290;SDS011;9271;48.590;8.866;2022-11-20T06:18:18;7.43;;;4.70;;
18290;SDS011;9271;48.590;8.866;2022-11-20T06:20:47;5.20;;;4.70;;
18290;SDS011;9271;48.590;8.866;2022-11-20T06:23:13;4.77;;;4.37;;
18290;SDS011;9271;48.590;8.866;2022-11-20T06:25:40;4.83;;;4.43;;
18290;SDS011;9271;48.590;8.866;2022-11-20T06:28:09;4.73;;;4.30;;
18290;SDS011;9271;48.590;8.866;2022-11-20T06:30:36;4.73;;;4.30;;
18290;SDS011;9271;48.590;8.866;2022-11-20T06:33:03;4.77;;;4.33;;
18290;SDS011;9271;48.590;8.866;2022-11-20T06:35:29;5.00;;;4.50;;
18290;SDS011;9271;48.590;8.866;2022-11-20T06:37:57;4.60;;;4.20;;
18290;SDS011;9271;48.590;8.866;2022-11-20T06:40:24;5.73;;;4.40;;
18290;SDS011;9271;48.590;8.866;2022-11-20T06:42:53;5.93;;;4.50;;
18290;SDS011;9271;48.590;8.866;2022-11-20T06:45:20;4.17;;;3.87;;
18290;SDS011;9271;48.590;8.866;2022-11-20T06:47:46;4.07;;;3.73;;
18290;SDS011;9271;48.590;8.866;2022-11-20T06:50:13;3.80;;;3.50;;
18290;SDS011;9271;48.590;8.866;2022-11-20T06:52:40;3.93;;;3.63;;
18290;SDS011;9271;48.590;8.866;2022-11-20T06:55:08;4.33;;;3.93;;
18290;SDS011;9271;48.590;8.866;2022-11-20T06:57:35;4.30;;;3.73;;
18290;SDS011;9271;48.590;8.866;2022-11-20T07:00:01;3.57;;;3.27;;
18290;SDS011;9271;48.590;8.866;2022-11-20T07:02:29;4.20;;;3.50;;
18290;SDS011;9271;48.590;8.866;2022-11-20T07:04:55;5.37;;;3.50;;
18290;SDS011;9271;48.590;8.866;2022-11-20T07:07:22;3.90;;;3.60;;
18290;SDS011;9271;48.590;8.866;2022-11-20T07:09:49;3.80;;;3.50;;
18290;SDS011;9271;48.590;8.866;2022-11-20T07:12:17;3.90;;;3.60;;
18290;SDS011;9271;48.590;8.866;2022-11-20T07:14:43;4.07;;;3.67;;
18290;SDS011;9271;48.590;8.866;2022-11-20T07:17:11;4.17;;;3.63;;
18290;SDS011;9271;48.590;8.866;2022-11-20T07:19:38;3.53;;;3.23;;
18290;SDS011;9271;48.590;8.866;2022-11-20T07:22:04;4.00;;;3.03;;
18290;SDS011;9271;48.590;8.866;2022-11-20T07:24:31;3.93;;;3.53;;
18290;SDS011;9271;48.590;8.866;2022-11-20T07:26:58;3.93;;;3.53;;
18290;SDS011;9271;48.590;8.866;2022-11-20T07:29:26;3.33;;;3.13;;
18290;SDS011;9271;48.590;8.866;2022-11-20T07:31:52;3.60;;;3.30;;
18290;SDS011;9271;48.590;8.866;2022-11-20T07:34:20;3.90;;;3.17;;
18290;SDS011;9271;48.590;8.866;2022-11-20T07:36:47;3.00;;;2.80;;
18290;SDS011;9271;48.590;8.866;2022-11-20T07:39:13;4.70;;;4.30;;
18290;SDS011;9271;48.590;8.866;2022-11-20T07:41:40;3.83;;;3.40;;
18290;SDS011;9271;48.590;8.866;2022-11-20T07:44:07;3.10;;;2.90;;
18290;SDS011;9271;48.590;8.866;2022-11-20T07:46:35;5.47;;;4.97;;
18290;SDS011;9271;48.590;8.866;2022-11-20T07:49:02;4.43;;;3.97;;
18290;SDS011;9271;48.590;8.866;2022-11-20T07:51:28;3.90;;;3.47;;
18290;SDS011;9271;48.590;8.866;2022-11-20T07:53:55;3.57;;;3.10;;
18290;SDS011;9271;48.590;8.866;2022-11-20T07:56:22;2.70;;;2.50;;
18290;SDS011;9271;48.590;8.866;2022-11-20T07:58:49;2.03;;;1.90;;
18290;SDS011;9271;48.590;8.866;2022-11-20T08:01:15;2.10;;;2.00;;
18290;SDS011;9271;48.590;8.866;2022-11-20T08:03:44;2.60;;;2.40;;
18290;SDS011;9271;48.590;8.866;2022-11-20T08:06:10;2.50;;;2.30;;
18290;SDS011;9271;48.590;8.866;2022-11-20T08:08:37;2.60;;;2.40;;
18290;SDS011;9271;48.590;8.866;2022-11-20T08:11:04;2.50;;;2.30;;
18290;SDS011;9271;48.590;8.866;2022-11-20T08:13:49;3.13;;;2.47;;
18290;SDS011;9271;48.590;8.866;2022-11-20T08:16:33;3.07;;;2.77;;
18290;SDS011;9271;48.590;8.866;2022-11-20T08:19:01;2.67;;;2.20;;
18290;SDS011;9271;48.590;8.866;2022-11-20T08:21:28;2.67;;;2.47;;
18290;SDS011;9271;48.590;8.866;2022-11-20T08:23:56;2.70;;;2.50;;
18290;SDS011;9271;48.590;8.866;2022-11-20T08:26:23;2.77;;;2.40;;
18290;SDS011;9271;48.590;8.866;2022-11-20T08:28:52;2.10;;;2.00;;
18290;SDS011;9271;48.590;8.866;2022-11-20T08:31:20;1.70;;;1.60;;
18290;SDS011;9271;48.590;8.866;2022-11-20T08:33:47;1.80;;;1.70;;
18290;SDS011;9271;48.590;8.866;2022-11-20T08:36:15;1.73;;;1.63;;
18290;SDS011;9271;48.590;8.866;2022-11-20T08:38:46;2.70;;;2.03;;
18290;SDS011;9271;48.590;8.866;2022-11-20T08:41:13;1.80;;;1.70;;
18290;SDS011;9271;48.590;8.866;2022-11-20T08:43:50;1.77;;;1.67;;
18290;SDS011;9271;48.590;8.866;2022-11-20T08:46:18;1.73;;;1.63;;
18290;SDS011;9271;48.590;8.866;2022-11-20T08:48:45;1.20;;;1.20;;
18290;SDS011;9271;48.590;8.866;2022-11-20T08:51:12;1.40;;;1.30;;
18290;SDS011;9271;48.590;8.866;2022-11-20T08:53:41;1.47;;;1.40;;
18290;SDS011;9271;48.590;8.866;2022-11-20T08:56:08;1.27;;;1.27;;
18290;SDS011;9271;48.590;8.866;2022-11-20T08:58:35;2.10;;;1.40;;
18290;SDS011;9271;48.590;8.866;2022-11-20T09:01:02;1.60;;;1.50;;
18290;SDS011;9271;48.590;8.866;2022-11-20T09:03:29;1.37;;;1.27;;
18290;SDS011;9271;48.590;8.866;2022-11-20T09:05:57;1.60;;;1.50;;
18290;SDS011;9271;48.590;8.866;2022-11-20T09:08:25;1.70;;;1.60;;
18290;SDS011;9271;48.590;8.866;2022-11-20T09:10:53;2.40;;;2.20;;
18290;SDS011;9271;48.590;8.866;2022-11-20T09:13:21;1.77;;;1.67;;
18290;SDS011;9271;48.590;8.866;2022-11-20T09:15:52;1.03;;;1.03;;
18290;SDS011;9271;48.590;8.866;2022-11-20T09:18:19;1.10;;;1.10;;
18290;SDS011;9271;48.590;8.866;2022-11-20T09:20:46;1.30;;;1.20;;
18290;SDS011;9271;48.590;8.866;2022-11-20T09:23:13;2.30;;;1.20;;
18290;SDS011;9271;48.590;8.866;2022-11-20T09:25:40;1.30;;;1.20;;
18290;SDS011;9271;48.590;8.866;2022-11-20T09:28:08;1.20;;;1.20;;
18290;SDS011;9271;48.590;8.866;2022-11-20T09:30:35;1.50;;;1.40;;
18290;SDS011;9271;48.590;8.866;2022-11-20T09:33:03;1.63;;;1.53;;
18290;SDS011;9271;48.590;8.866;2022-11-20T09:35:30;1.50;;;1.40;;
18290;SDS011;9271;48.590;8.866;2022-11-20T09:37:57;1.90;;;1.70;;
18290;SDS011;9271;48.590;8.866;2022-11-20T09:40:25;2.40;;;1.47;;
18290;SDS011;9271;48.590;8.866;2022-11-20T09:42:55;1.50;;;1.40;;
18290;SDS011;9271;48.590;8.866;2022-11-20T09:45:28;1.10;;;1.10;;
18290;SDS011;9271;48.590;8.866;2022-11-20T09:48:16;1.80;;;1.50;;
18290;SDS011;9271;48.590;8.866;2022-11-20T09:50:52;2.00;;;1.90;;
18290;SDS011;9271;48.590;8.866;2022-11-20T09:53:27;1.50;;;1.40;;
18290;SDS011;9271;48.590;8.866;2022-11-20T09:56:01;9.03;;;6.07;;
18290;SDS011;9271;48.590;8.866;2022-11-20T09:58:31;1.23;;;1.23;;
18290;SDS011;9271;48.590;8.866;2022-11-20T10:01:05;1.33;;;1.30;;
18290;SDS011;9271;48.590;8.866;2022-11-20T10:03:38;1.17;;;1.17;;
18290;SDS011;9271;48.590;8.866;2022-11-20T10:06:17;1.80;;;1.70;;
18290;SDS011;9271;48.590;8.866;2022-11-20T10:08:45;1.50;;;1.40;;
18290;SDS011;9271;48.590;8.866;2022-11-20T10:11:23;1.30;;;1.20;;
18290;SDS011;9271;48.590;8.866;2022-11-20T10:13:58;1.20;;;1.20;;
18290;SDS011;9271;48.590;8.866;2022-11-20T10:16:36;1.93;;;1.20;;
18290;SDS011;9271;48.590;8.866;2022-11-20T10:19:11;5.20;;;3.77;;
18290;SDS011;9271;48.590;8.866;2022-11-20T10:21:55;2.37;;;2.17;;
18290;SDS011;9271;48.590;8.866;2022-11-20T10:24:36;1.10;;;1.10;;
18290;SDS011;9271;48.590;8.866;2022-11-20T10:27:15;1.10;;;1.10;;
18290;SDS011;9271;48.590;8.866;2022-11-20T10:30:00;1.77;;;1.67;;
18290;SDS011;9271;48.590;8.866;2022-11-20T10:32:35;0.93;;;0.93;;
18290;SDS011;9271;48.590;8.866;2022-11-20T10:35:05;1.43;;;1.33;;
18290;SDS011;9271;48.590;8.866;2022-11-20T10:37:42;2.07;;;1.27;;
18290;SDS011;9271;48.590;8.866;2022-11-20T10:40:17;1.40;;;1.30;;
18290;SDS011;9271;48.590;8.866;2022-11-20T10:42:49;1.10;;;1.10;;
18290;SDS011;9271;48.590;8.866;2022-11-20T10:45:21;2.73;;;1.57;;
18290;SDS011;9271;48.590;8.866;2022-11-20T10:48:07;1.00;;;1.00;;
18290;SDS011;9271;48.590;8.866;2022-11-20T10:50:48;0.90;;;0.90;;
18290;SDS011;9271;48.590;8.866;2022-11-20T10:53:28;1.27;;;1.17;;
18290;SDS011;9271;48.590;8.866;2022-11-20T10:56:07;0.97;;;0.97;;
18290;SDS011;9271;48.590;8.866;2022-11-20T10:58:43;1.13;;;1.07;;
18290;SDS011;9271;48.590;8.866;2022-11-20T11:01:17;2.30;;;1.67;;
18290;SDS011;9271;48.590;8.866;2022-11-20T11:03:48;1.57;;;1.33;;
18290;SDS011;9271;48.590;8.866;2022-11-20T11:06:18;1.93;;;1.83;;
18290;SDS011;9271;48.590;8.866;2022-11-20T11:08:51;1.10;;;1.10;;
18290;SDS011;9271;48.590;8.866;2022-11-20T11:11:21;1.30;;;1.20;;
18290;SDS011;9271;48.590;8.866;2022-11-20T11:13:49;1.87;;;1.07;;
18290;SDS011;9271;48.590;8.866;2022-11-20T11:16:20;3.03;;;2.17;;
18290;SDS011;9271;48.590;8.866;2022-11-20T11:18:49;1.77;;;1.43;;
18290;SDS011;9271;48.590;8.866;2022-11-20T11:21:21;1.30;;;1.07;;
18290;SDS011;9271;48.590;8.866;2022-11-20T11:23:57;1.07;;;1.00;;
18290;SDS011;9271;48.590;8.866;2022-11-20T11:26:26;1.53;;;1.30;;
18290;SDS011;9271;48.590;8.866;2022-11-20T11:28:54;1.23;;;1.20;;
18290;SDS011;9271;48.590;8.866;2022-11-20T11:31:22;1.20;;;1.10;;
18290;SDS011;9271;48.590;8.866;2022-11-20T11:33:51;1.10;;;1.00;;
18290;SDS011;9271;48.590;8.866;2022-11-20T11:36:19;3.03;;;0.90;;
18290;SDS011;9271;48.590;8.866;2022-11-20T11:38:50;1.93;;;1.10;;
18290;SDS011;9271;48.590;8.866;2022-11-20T11:41:19;1.23;;;1.10;;
18290;SDS011;9271;48.590;8.866;2022-11-20T11:43:50;1.50;;;1.10;;
18290;SDS011;9271;48.590;8.866;2022-11-20T11:46:37;1.40;;;1.30;;
18290;SDS011;9271;48.590;8.866;2022-11-20T11:49:14;2.70;;;1.63;;
18290;SDS011;9271;48.590;8.866;2022-11-20T11:51:46;1.23;;;1.10;;
18290;SDS011;9271;48.590;8.866;2022-11-20T11:54:23;1.47;;;1.27;;
18290;SDS011;9271;48.590;8.866;2022-11-20T11:56:53;1.83;;;1.20;;
18290;SDS011;9271;48.590;8.866;2022-11-20T11:59:22;1.60;;;1.20;;
18290;SDS011;9271;48.590;8.866;2022-11-20T12:01:53;1.47;;;1.10;;
18290;SDS011;9271;48.590;8.866;2022-11-20T12:04:28;1.67;;;1.57;;
18290;SDS011;9271;48.590;8.866;2022-11-20T12:07:07;2.27;;;1.20;;
18290;SDS011;9271;48.590;8.866;2022-11-20T12:09:41;1.40;;;1.30;;
18290;SDS011;9271;48.590;8.866;2022-11-20T12:12:15;1.70;;;1.33;;
18290;SDS011;9271;48.590;8.866;2022-11-20T12:14:46;1.50;;;1.00;;
18290;SDS011;9271;48.590;8.866;2022-11-20T12:17:15;0.90;;;0.90;;
18290;SDS011;9271;48.590;8.866;2022-11-20T12:19:44;1.73;;;0.70;;
18290;SDS011;9271;48.590;8.866;2022-11-20T12:22:13;0.80;;;0.80;;
18290;SDS011;9271;48.590;8.866;2022-11-20T12:24:55;1.30;;;0.93;;
18290;SDS011;9271;48.590;8.866;2022-11-20T12:27:33;2.03;;;0.90;;
18290;SDS011;9271;48.590;8.866;2022-11-20T12:30:10;2.27;;;1.60;;
18290;SDS011;9271;48.590;8.866;2022-11-20T12:32:50;1.23;;;1.10;;
18290;SDS011;9271;48.590;8.866;2022-11-20T12:35:44;2.87;;;2.40;;
18290;SDS011;9271;48.590;8.866;2022-11-20T12:38:39;4.37;;;3.10;;
18290;SDS011;9271;48.590;8.866;2022-11-20T12:41:22;1.90;;;1.40;;
18290;SDS011;9271;48.590;8.866;2022-11-20T12:44:20;1.63;;;1.43;;
18290;SDS011;9271;48.590;8.866;2022-11-20T12:47:19;1.27;;;1.17;;
18290;SDS011;9271;48.590;8.866;2022-11-20T12:49:56;1.07;;;1.00;;
18290;SDS011;9271;48.590;8.866;2022-11-20T12:52:32;2.10;;;1.17;;
18290;SDS011;9271;48.590;8.866;2022-11-20T12:55:09;1.60;;;1.50;;
18290;SDS011;9271;48.590;8.866;2022-11-20T12:57:43;1.57;;;1.30;;
18290;SDS011;9271;48.590;8.866;2022-11-20T13:00:16;1.63;;;1.30;;
18290;SDS011;9271;48.590;8.866;2022-11-20T13:05:46;1.60;;;1.50;;
18290;SDS011;9271;48.590;8.866;2022-11-20T13:08:23;1.20;;;1.10;;
18290;SDS011;9271;48.590;8.866;2022-11-20T13:10:54;1.30;;;1.20;;
18290;SDS011;9271;48.590;8.866;2022-11-20T13:13:29;1.77;;;1.30;;
18290;SDS011;9271;48.590;8.866;2022-11-20T13:16:02;2.23;;;1.20;;
18290;SDS011;9271;48.590;8.866;2022-11-20T13:18:36;1.40;;;1.20;;
18290;SDS011;9271;48.590;8.866;2022-11-20T13:21:16;2.37;;;1.50;;
18290;SDS011;9271;48.590;8.866;2022-11-20T13:23:45;1.60;;;1.50;;
18290;SDS011;9271;48.590;8.866;2022-11-20T13:26:16;1.60;;;1.47;;
18290;SDS011;9271;48.590;8.866;2022-11-20T13:28:46;2.37;;;1.53;;
18290;SDS011;9271;48.590;8.866;2022-11-20T13:31:28;1.80;;;1.70;;
18290;SDS011;9271;48.590;8.866;2022-11-20T13:33:57;2.47;;;1.50;;
18290;SDS011;9271;48.590;8.866;2022-11-20T13:36:26;2.00;;;1.50;;
18290;SDS011;9271;48.590;8.866;2022-11-20T13:38:56;1.10;;;1.10;;
18290;SDS011;9271;48.590;8.866;2022-11-20T13:41:24;2.10;;;1.90;;
18290;SDS011;9271;48.590;8.866;2022-11-20T13:43:57;2.33;;;1.90;;
18290;SDS011;9271;48.590;8.866;2022-11-20T13:46:35;2.73;;;2.00;;
18290;SDS011;9271;48.590;8.866;2022-11-20T13:49:08;4.27;;;1.93;;
18290;SDS011;9271;48.590;8.866;2022-11-20T13:51:42;2.80;;;1.80;;
18290;SDS011;9271;48.590;8.866;2022-11-20T13:54:25;3.10;;;1.90;;
18290;SDS011;9271;48.590;8.866;2022-11-20T13:57:16;4.20;;;2.60;;
18290;SDS011;9271;48.590;8.866;2022-11-20T14:00:07;2.50;;;1.50;;
18290;SDS011;9271;48.590;8.866;2022-11-20T14:02:38;1.83;;;1.40;;
18290;SDS011;9271;48.590;8.866;2022-11-20T14:05:06;2.70;;;1.40;;
18290;SDS011;9271;48.590;8.866;2022-11-20T14:07:45;3.37;;;1.43;;
18290;SDS011;9271;48.590;8.866;2022-11-20T14:10:20;1.87;;;1.30;;
18290;SDS011;9271;48.590;8.866;2022-11-20T14:12:49;1.87;;;1.60;;
18290;SDS011;9271;48.590;8.866;2022-11-20T14:15:24;1.80;;;1.37;;
18290;SDS011;9271;48.590;8.866;2022-11-20T14:17:52;1.57;;;1.47;;
18290;SDS011;9271;48.590;8.866;2022-11-20T14:20:19;2.53;;;1.23;;
18290;SDS011;9271;48.590;8.866;2022-11-20T14:22:50;1.37;;;1.27;;
18290;SDS011;9271;48.590;8.866;2022-11-20T14:25:20;1.50;;;1.40;;
18290;SDS011;9271;48.590;8.866;2022-11-20T14:27:52;1.03;;;1.00;;
18290;SDS011;9271;48.590;8.866;2022-11-20T14:30:21;1.83;;;1.10;;
18290;SDS011;9271;48.590;8.866;2022-11-20T14:32:49;0.97;;;0.97;;
18290;SDS011;9271;48.590;8.866;2022-11-20T14:35:20;1.67;;;1.37;;
18290;SDS011;9271;48.590;8.866;2022-11-20T14:37:49;1.00;;;1.00;;
18290;SDS011;9271;48.590;8.866;2022-11-20T14:40:26;1.30;;;1.20;;
18290;SDS011;9271;48.590;8.866;2022-11-20T14:42:54;1.20;;;1.10;;
18290;SDS011;9271;48.590;8.866;2022-11-20T14:45:22;2.63;;;1.30;;
18290;SDS011;9271;48.590;8.866;2022-11-20T14:47:49;1.63;;;1.53;;
18290;SDS011;9271;48.590;8.866;2022-11-20T14:50:19;3.03;;;1.90;;
18290;SDS011;9271;48.590;8.866;2022-11-20T14:52:52;3.53;;;2.37;;
18290;SDS011;9271;48.590;8.866;2022-11-20T14:55:28;3.27;;;2.20;;
18290;SDS011;9271;48.590;8.866;2022-11-20T14:57:56;3.13;;;2.40;;
18290;SDS011;9271;48.590;8.866;2022-11-20T15:00:24;2.97;;;1.93;;
18290;SDS011;9271;48.590;8.866;2022-11-20T15:02:51;2.67;;;1.60;;
18290;SDS011;9271;48.590;8.866;2022-11-20T15:05:20;1.97;;;1.60;;
18290;SDS011;9271;48.590;8.866;2022-11-20T15:07:49;3.77;;;2.20;;
18290;SDS011;9271;48.590;8.866;2022-11-20T15:10:21;4.33;;;3.00;;
18290;SDS011;9271;48.590;8.866;2022-11-20T15:12:51;4.17;;;2.87;;
18290;SDS011;9271;48.590;8.866;2022-11-20T15:15:20;4.97;;;3.23;;
18290;SDS011;9271;48.590;8.866;2022-11-20T15:17:51;1.90;;;1.80;;
18290;SDS011;9271;48.590;8.866;2022-11-20T15:20:17;1.93;;;1.83;;
18290;SDS011;9271;48.590;8.866;2022-11-20T15:22:44;2.03;;;1.90;;
18290;SDS011;9271;48.590;8.866;2022-11-20T15:25:12;2.43;;;2.20;;